This is the latest recevied weather packets stored in our database for station/object AI5KP-13. If no packets are shown the sender has not sent any weather packets the latest 10 day(s).
| Time | Temp. | Humidity | Pressure | Rain* | Wind** | Luminosity | Snow |
|---|---|---|---|---|---|---|---|
| 1777143011 | 25° C | 63% | 1008.2 hPa | 0 mm | - | 702 W/m² | - |
| 1777142707 | 25.56° C | 59% | 1008.3 hPa | 0 mm | - | 703 W/m² | - |
| 1777142404 | 25° C | 60% | 1008.4 hPa | 0 mm | - | 708 W/m² | - |
| 1777142104 | 25.56° C | 58% | 1008.4 hPa | 0 mm | - | 711 W/m² | - |
| 1777141800 | 25° C | 62% | 1008.3 hPa | 0 mm | - | 714 W/m² | - |
| 1777141497 | 24.44° C | 64% | 1008.5 hPa | 0 mm | - | 715 W/m² | - |
| 1777141195 | 25.56° C | 62% | 1008.6 hPa | 0 mm | - | 718 W/m² | - |
| 1777140892 | 25° C | 61% | 1008.8 hPa | 0 mm | - | 719 W/m² | - |
| 1777140589 | 25° C | 62% | 1008.8 hPa | 0 mm | - | 721 W/m² | - |
| 1777140286 | 24.44° C | 62% | 1008.9 hPa | 0 mm | - | 722 W/m² | - |
| 1777139983 | 24.44° C | 62% | 1008.9 hPa | 0 mm | - | 723 W/m² | - |
| 1777139680 | 24.44° C | 62% | 1009.2 hPa | 0 mm | - | 720 W/m² | - |
| 1777139375 | 24.44° C | 61% | 1009.3 hPa | 0 mm | - | 723 W/m² | - |
| 1777139072 | 23.89° C | 62% | 1009.3 hPa | 0 mm | - | 722 W/m² | - |
| 1777138769 | 23.89° C | 61% | 1009.6 hPa | 0 mm | - | 722 W/m² | - |
| 1777138464 | 23.89° C | 64% | 1009.7 hPa | 0 mm | - | 721 W/m² | - |
| 1777138161 | 23.89° C | 65% | 1009.6 hPa | 0 mm | - | 721 W/m² | - |
| 1777137856 | 23.89° C | 66% | 1009.8 hPa | 0 mm | - | 720 W/m² | - |
| 1777137552 | 24.44° C | 62% | 1009.8 hPa | 0 mm | - | 715 W/m² | - |
| 1777137251 | 23.89° C | 64% | 1009.7 hPa | 0 mm | - | 715 W/m² | - |
| 1777136948 | 23.33° C | 65% | 1009.8 hPa | 0 mm | - | 714 W/m² | - |
| 1777136643 | 23.89° C | 65% | 1009.9 hPa | 0 mm | - | 709 W/m² | - |
| 1777136341 | 22.78° C | 66% | 1010 hPa | 0 mm | - | 709 W/m² | - |
| 1777136038 | 23.33° C | 67% | 1009.9 hPa | 0 mm | - | 709 W/m² | - |
| 1777135734 | 23.33° C | 66% | 1009.8 hPa | 0 mm | - | 697 W/m² | - |
* Rain latest hour (hover to see other rain measurements)
** Current wind speed in m/s (hover to see current wind gust speed)